Time;durP1;ratioP1;P1;durP2;ratioP2;P2;SDS_P1;SDS_P2;PMS_P1;PMS_P2;Temp;Humidity;BMP_temperature;BMP_pressure;BME280_temperature;BME280_humidity;BME280_pressure;Samples;Min_cycle;Max_cycle;Signal;HPM_P1;HPM_P2
2023/04/16 00:04:13;;;;;;;8.82;6.15;;;;;;;;;;10420782;28;20135;-80
2023/04/16 00:09:19;;;;;;;9.32;5.70;;;;;;;;;;10430248;28;20063;-80
2023/04/16 00:14:19;;;;;;;8.88;5.97;;;;;;;;;;10470374;28;20041;-81
2023/04/16 00:19:20;;;;;;;7.43;5.37;;;;;;;;;;10469960;28;20098;-79
2023/04/16 00:24:21;;;;;;;8.13;5.73;;;;;;;;;;10436728;28;20299;-79
2023/04/16 00:29:22;;;;;;;9.10;6.03;;;;;;;;;;10425903;28;20303;-80
2023/04/16 00:34:23;;;;;;;8.65;6.10;;;;;;;;;;10422856;28;20037;-80
2023/04/16 00:39:23;;;;;;;8.30;6.05;;;;;;;;;;10408463;28;20063;-82
2023/04/16 00:44:24;;;;;;;8.30;5.82;;;;;;;;;;10424700;28;20052;-81
2023/04/16 00:49:26;;;;;;;9.57;6.30;;;;;;;;;;10409325;28;20112;-80
2023/04/16 00:54:27;;;;;;;9.45;5.93;;;;;;;;;;10444052;28;20045;-80
2023/04/16 00:59:29;;;;;;;10.65;6.47;;;;;;;;;;10424788;28;20144;-81
2023/04/16 01:04:30;;;;;;;10.27;6.13;;;;;;;;;;10408720;28;20049;-81
2023/04/16 01:09:30;;;;;;;10.68;7.00;;;;;;;;;;10421001;28;20056;-79
2023/04/16 01:14:35;;;;;;;9.50;5.88;;;;;;;;;;10440836;28;20045;-83
2023/04/16 01:19:37;;;;;;;11.60;6.05;;;;;;;;;;10466587;28;20101;-83
2023/04/16 01:24:40;;;;;;;;;;;;;;;;;;10467158;28;20044;-81
2023/04/16 01:29:43;;;;;;;10.88;6.65;;;;;;;;;;10456013;28;19955;-83
2023/04/16 01:34:46;;;;;;;9.07;6.25;;;;;;;;;;10410101;28;20103;-83
2023/04/16 01:39:49;;;;;;;9.57;6.60;;;;;;;;;;10409936;28;20091;-81
2023/04/16 01:44:51;;;;;;;10.18;6.45;;;;;;;;;;10419718;28;20045;-82
2023/04/16 01:49:55;;;;;;;10.10;6.63;;;;;;;;;;10412226;28;20113;-81
2023/04/16 01:54:57;;;;;;;10.98;6.30;;;;;;;;;;10423275;28;20052;-81
2023/04/16 02:00:01;;;;;;;9.15;6.03;;;;;;;;;;10401022;28;20072;-83
2023/04/16 02:05:02;;;;;;;10.25;6.13;;;;;;;;;;10404899;28;20084;-81
2023/04/16 02:10:04;;;;;;;12.30;6.90;;;;;;;;;;10390123;28;20484;-84
2023/04/16 02:15:06;;;;;;;10.65;5.93;;;;;;;;;;10399969;28;20128;-83
2023/04/16 02:20:08;;;;;;;10.65;6.07;;;;;;;;;;10405564;28;20045;-82
2023/04/16 02:25:14;;;;;;;9.32;6.47;;;;;;;;;;10400425;28;20064;-81
2023/04/16 02:30:16;;;;;;;8.20;5.60;;;;;;;;;;10401029;28;20627;-80
2023/04/16 02:35:20;;;;;;;9.65;5.75;;;;;;;;;;10412934;28;20084;-83
2023/04/16 02:40:20;;;;;;;8.93;5.63;;;;;;;;;;10391411;28;20127;-82
2023/04/16 02:45:23;;;;;;;8.90;5.97;;;;;;;;;;10450084;28;20064;-86
2023/04/16 02:50:25;;;;;;;9.15;5.60;;;;;;;;;;10476347;28;20059;-85
2023/04/16 02:55:28;;;;;;;9.27;5.78;;;;;;;;;;10508620;28;20040;-86
2023/04/16 03:00:31;;;;;;;8.57;5.63;;;;;;;;;;10525599;28;20058;-81
2023/04/16 03:05:35;;;;;;;14.18;6.50;;;;;;;;;;10496905;28;20049;-81
2023/04/16 03:10:38;;;;;;;10.27;6.05;;;;;;;;;;10472364;28;20056;-82
2023/04/16 03:15:39;;;;;;;9.50;6.00;;;;;;;;;;10486569;28;20037;-83
2023/04/16 03:20:51;;;;;;;8.13;4.93;;;;;;;;;;10494495;28;20048;-82
2023/04/16 03:25:51;;;;;;;8.75;5.75;;;;;;;;;;10486738;28;20049;-81
2023/04/16 03:30:52;;;;;;;8.38;5.47;;;;;;;;;;10465097;28;20048;-81
2023/04/16 03:35:59;;;;;;;11.02;5.78;;;;;;;;;;10462679;28;20060;-81
2023/04/16 03:41:05;;;;;;;9.45;5.78;;;;;;;;;;10469821;28;20045;-83
2023/04/16 03:46:07;;;;;;;8.32;5.25;;;;;;;;;;10454445;28;20073;-84
2023/04/16 03:51:10;;;;;;;7.10;4.90;;;;;;;;;;10471164;28;20051;-82
2023/04/16 03:56:14;;;;;;;9.48;5.40;;;;;;;;;;10468903;28;20058;-84
2023/04/16 04:01:16;;;;;;;10.32;5.93;;;;;;;;;;10483980;28;21076;-86
2023/04/16 04:06:18;;;;;;;8.60;5.80;;;;;;;;;;10471734;22;20065;-85
2023/04/16 04:11:22;;;;;;;9.32;5.47;;;;;;;;;;10376404;28;20049;-81
2023/04/16 04:16:45;;;;;;;8.52;5.57;;;;;;;;;;10382853;28;20056;-82
2023/04/16 04:21:49;;;;;;;9.80;5.75;;;;;;;;;;10378899;28;20057;-83
2023/04/16 04:26:51;;;;;;;7.85;4.60;;;;;;;;;;10396491;28;20590;-80
2023/04/16 04:31:53;;;;;;;10.13;5.82;;;;;;;;;;10373719;28;20051;-81
2023/04/16 04:36:59;;;;;;;10.05;5.72;;;;;;;;;;10357903;28;20050;-80
2023/04/16 04:42:04;;;;;;;9.48;5.85;;;;;;;;;;10370335;28;20417;-83
2023/04/16 04:47:08;;;;;;;10.82;6.60;;;;;;;;;;10372068;28;20053;-84
2023/04/16 04:52:11;;;;;;;12.82;7.55;;;;;;;;;;10408732;28;20156;-81
2023/04/16 04:57:13;;;;;;;13.48;8.35;;;;;;;;;;10414948;28;20077;-82
2023/04/16 05:02:14;;;;;;;15.18;8.13;;;;;;;;;;10444424;28;20138;-82
2023/04/16 05:07:20;;;;;;;12.38;7.55;;;;;;;;;;10473741;28;20040;-83
2023/04/16 05:12:25;;;;;;;12.45;7.18;;;;;;;;;;10533396;28;20040;-82
2023/04/16 05:17:27;;;;;;;13.27;7.90;;;;;;;;;;10485163;28;20057;-81
2023/04/16 05:22:33;;;;;;;15.50;8.75;;;;;;;;;;10476356;28;20059;-82
2023/04/16 05:27:40;;;;;;;14.43;8.25;;;;;;;;;;10506763;28;20076;-82
2023/04/16 05:32:42;;;;;;;15.70;8.65;;;;;;;;;;10496737;28;20497;-82
2023/04/16 05:37:43;;;;;;;13.63;7.82;;;;;;;;;;10473140;28;20044;-82
2023/04/16 05:42:43;;;;;;;15.13;7.80;;;;;;;;;;10428954;28;20509;-81
2023/04/16 05:47:44;;;;;;;14.13;8.35;;;;;;;;;;10447331;28;20060;-81
2023/04/16 05:52:46;;;;;;;14.95;8.13;;;;;;;;;;10412842;28;20045;-82
2023/04/16 05:57:47;;;;;;;;;;;;;;;;;;10411729;28;20069;-80
2023/04/16 06:02:49;;;;;;;15.65;8.82;;;;;;;;;;10418343;28;19921;-82
2023/04/16 06:07:49;;;;;;;16.58;8.40;;;;;;;;;;10418670;28;20496;-86
2023/04/16 06:12:53;;;;;;;15.60;8.27;;;;;;;;;;10435013;28;20083;-86
2023/04/16 06:17:58;;;;;;;13.40;7.10;;;;;;;;;;10406280;28;20049;-88
2023/04/16 06:23:01;;;;;;;13.77;7.75;;;;;;;;;;10423005;28;20061;-82
2023/04/16 06:28:03;;;;;;;10.23;5.80;;;;;;;;;;10422604;28;20105;-84
2023/04/16 06:33:04;;;;;;;9.63;5.43;;;;;;;;;;10474497;28;20060;-85
2023/04/16 06:38:04;;;;;;;8.27;4.75;;;;;;;;;;10459906;28;20152;-84
2023/04/16 06:43:10;;;;;;;;;;;;;;;;;;10440010;28;20037;-88
2023/04/16 06:48:13;;;;;;;7.25;4.88;;;;;;;;;;10473502;28;19909;-86
2023/04/16 07:04:22;;;;;;;6.20;3.67;;;;;;;;;;10426223;28;20049;-86
2023/04/16 07:09:25;;;;;;;5.57;3.40;;;;;;;;;;10474844;28;20037;-86
2023/04/16 07:14:32;;;;;;;4.45;3.47;;;;;;;;;;10771112;22;20049;-86
2023/04/16 07:19:34;;;;;;;4.78;3.28;;;;;;;;;;10460377;28;20037;-84
2023/04/16 07:24:55;;;;;;;3.58;2.85;;;;;;;;;;10456711;28;20053;-87
2023/04/16 07:35:41;;;;;;;3.95;2.50;;;;;;;;;;10491971;28;20048;-87
2023/04/16 07:52:19;;;;;;;3.47;2.85;;;;;;;;;;10455320;28;20287;-86
2023/04/16 07:57:21;;;;;;;;;;;;;;;;;;10429012;28;20045;-87
2023/04/16 08:07:51;;;;;;;3.72;2.80;;;;;;;;;;10809693;22;20048;-83
2023/04/16 08:23:42;;;;;;;2.90;2.35;;;;;;;;;;10730539;22;20072;-89
2023/04/16 08:28:43;;;;;;;2.85;2.15;;;;;;;;;;10460474;28;20048;-87
2023/04/16 08:34:01;;;;;;;3.33;2.10;;;;;;;;;;10486534;28;20089;-89
2023/04/16 08:39:04;;;;;;;2.47;2.17;;;;;;;;;;10482503;28;20111;-87
2023/04/16 08:44:20;;;;;;;1.42;1.33;;;;;;;;;;10507742;28;20542;-88
2023/04/16 08:49:25;;;;;;;2.40;1.60;;;;;;;;;;10479907;28;20063;-87
2023/04/16 08:54:32;;;;;;;1.67;1.38;;;;;;;;;;10463367;28;20056;-86
2023/04/16 08:59:35;;;;;;;1.10;1.00;;;;;;;;;;10457486;28;20053;-84
2023/04/16 09:04:37;;;;;;;1.42;1.33;;;;;;;;;;10466761;28;20040;-85
2023/04/16 09:09:38;;;;;;;0.70;0.70;;;;;;;;;;10431412;23;20092;-83
2023/04/16 09:14:43;;;;;;;1.00;0.90;;;;;;;;;;10406036;28;20056;-87
2023/04/16 09:19:55;;;;;;;1.10;0.90;;;;;;;;;;10465592;28;20132;-86
2023/04/16 09:24:56;;;;;;;0.90;0.80;;;;;;;;;;10495215;28;20063;-85
2023/04/16 09:29:58;;;;;;;0.68;0.60;;;;;;;;;;10455349;28;20048;-85
2023/04/16 09:34:59;;;;;;;2.42;2.10;;;;;;;;;;10442680;28;20841;-86
2023/04/16 09:40:02;;;;;;;3.20;2.90;;;;;;;;;;10422628;28;20088;-88
2023/04/16 09:45:04;;;;;;;4.15;2.10;;;;;;;;;;10426350;28;20045;-79
2023/04/16 09:50:05;;;;;;;2.08;1.88;;;;;;;;;;10446802;28;20041;-82
2023/04/16 09:55:06;;;;;;;2.17;1.80;;;;;;;;;;10431705;28;20037;-85
2023/04/16 10:00:09;;;;;;;4.47;2.40;;;;;;;;;;10446752;28;20048;-87
2023/04/16 10:05:12;;;;;;;2.45;1.80;;;;;;;;;;10433116;28;20548;-85
2023/04/16 10:10:13;;;;;;;1.85;1.67;;;;;;;;;;10486078;28;20052;-85
2023/04/16 10:15:13;;;;;;;1.83;1.67;;;;;;;;;;10454108;28;20053;-84
2023/04/16 10:20:16;;;;;;;1.80;1.58;;;;;;;;;;10430690;28;20038;-80
2023/04/16 10:25:18;;;;;;;1.50;1.40;;;;;;;;;;10414645;28;20041;-82
2023/04/16 10:30:20;;;;;;;1.50;1.40;;;;;;;;;;10438058;28;20138;-83
2023/04/16 10:35:24;;;;;;;1.35;1.08;;;;;;;;;;10444302;28;20041;-85
2023/04/16 10:40:25;;;;;;;1.83;1.70;;;;;;;;;;10432229;28;20048;-84
2023/04/16 10:45:29;;;;;;;2.00;1.80;;;;;;;;;;10423034;28;20033;-82
2023/04/16 10:50:35;;;;;;;2.10;1.90;;;;;;;;;;10422365;28;20049;-84
2023/04/16 10:55:38;;;;;;;2.20;2.00;;;;;;;;;;10430555;28;20057;-84
2023/04/16 11:00:49;;;;;;;3.30;2.60;;;;;;;;;;10467005;28;20048;-86
2023/04/16 11:05:51;;;;;;;3.92;2.67;;;;;;;;;;10452503;28;20071;-82
2023/04/16 11:10:51;;;;;;;2.50;2.30;;;;;;;;;;10439568;28;20099;-82
2023/04/16 11:15:55;;;;;;;2.33;2.13;;;;;;;;;;10457931;28;20041;-84
2023/04/16 11:21:00;;;;;;;3.42;2.10;;;;;;;;;;10439367;28;20055;-86
2023/04/16 11:26:01;;;;;;;2.45;1.92;;;;;;;;;;10465059;28;20130;-83
2023/04/16 11:31:11;;;;;;;3.13;2.83;;;;;;;;;;10461154;28;20123;-84
2023/04/16 11:36:12;;;;;;;3.75;2.70;;;;;;;;;;10514443;28;20095;-84
2023/04/16 11:41:18;;;;;;;3.20;2.53;;;;;;;;;;10500096;28;20041;-84
2023/04/16 11:46:21;;;;;;;2.60;2.35;;;;;;;;;;10455545;28;20546;-83
2023/04/16 11:51:22;;;;;;;3.05;2.58;;;;;;;;;;10456457;28;20048;-82
2023/04/16 11:56:29;;;;;;;2.42;2.17;;;;;;;;;;10463663;28;20060;-84
2023/04/16 12:01:30;;;;;;;4.18;2.83;;;;;;;;;;10475267;28;20115;-83
2023/04/16 12:06:32;;;;;;;1.83;1.67;;;;;;;;;;10454995;28;20481;-84
2023/04/16 12:11:35;;;;;;;;;;;;;;;;;;10482722;28;20041;-84
2023/04/16 12:16:38;;;;;;;2.08;1.80;;;;;;;;;;10478259;28;20562;-83
2023/04/16 12:26:45;;;;;;;2.67;2.00;;;;;;;;;;10450527;28;20492;-84
2023/04/16 12:31:52;;;;;;;1.95;1.80;;;;;;;;;;10444453;28;20051;-87
2023/04/16 12:37:11;;;;;;;2.03;1.80;;;;;;;;;;10455648;28;20089;-86
2023/04/16 12:42:11;;;;;;;2.95;1.95;;;;;;;;;;10497685;28;20075;-83
2023/04/16 12:47:12;;;;;;;2.08;1.90;;;;;;;;;;10484512;28;20036;-85
2023/04/16 12:52:12;;;;;;;1.60;1.48;;;;;;;;;;10500203;28;20052;-86
2023/04/16 12:57:13;;;;;;;2.10;1.90;;;;;;;;;;10510022;28;20174;-83
2023/04/16 13:02:16;;;;;;;2.28;1.90;;;;;;;;;;10495202;28;20048;-86
2023/04/16 13:07:18;;;;;;;1.90;1.70;;;;;;;;;;10466768;28;20515;-85
2023/04/16 13:12:20;;;;;;;2.63;1.70;;;;;;;;;;10500411;28;20042;-85
2023/04/16 13:17:23;;;;;;;1.90;1.80;;;;;;;;;;10464915;28;20121;-88
2023/04/16 13:22:24;;;;;;;2.20;2.00;;;;;;;;;;10493104;28;20048;-86
2023/04/16 13:27:24;;;;;;;2.22;2.03;;;;;;;;;;10506804;28;20032;-85
2023/04/16 13:32:25;;;;;;;2.28;2.00;;;;;;;;;;10481190;28;20048;-87
2023/04/16 13:37:26;;;;;;;2.33;2.00;;;;;;;;;;10488152;28;20051;-89
2023/04/16 13:42:27;;;;;;;2.88;2.47;;;;;;;;;;10517084;28;20041;-87
2023/04/16 13:47:27;;;;;;;2.25;1.95;;;;;;;;;;10502185;28;20504;-85
2023/04/16 13:52:28;;;;;;;2.63;2.20;;;;;;;;;;10469107;28;20161;-80
2023/04/16 13:57:29;;;;;;;2.37;2.17;;;;;;;;;;10468176;28;20052;-82
2023/04/16 14:02:32;;;;;;;3.03;2.40;;;;;;;;;;10485493;28;20052;-83
2023/04/16 14:07:34;;;;;;;3.53;2.30;;;;;;;;;;10490477;28;20053;-83
2023/04/16 14:12:35;;;;;;;2.20;1.88;;;;;;;;;;10724013;22;20052;-87
2023/04/16 14:17:37;;;;;;;2.95;2.08;;;;;;;;;;10434150;28;20080;-86
2023/04/16 14:22:38;;;;;;;2.08;1.75;;;;;;;;;;10407388;28;20757;-85
2023/04/16 14:27:40;;;;;;;1.80;1.70;;;;;;;;;;10403549;28;20034;-84
2023/04/16 14:38:15;;;;;;;1.50;1.30;;;;;;;;;;10482112;28;20069;-91
2023/04/16 14:43:15;;;;;;;1.23;1.13;;;;;;;;;;10440399;28;20143;-83
2023/04/16 14:48:16;;;;;;;1.50;1.40;;;;;;;;;;10480956;28;20331;-87
2023/04/16 14:53:19;;;;;;;1.42;1.30;;;;;;;;;;10476204;28;20032;-86
2023/04/16 14:58:20;;;;;;;2.45;1.40;;;;;;;;;;10493578;28;20060;-84
2023/04/16 15:03:24;;;;;;;2.92;1.55;;;;;;;;;;10967019;22;20357;-82
2023/04/16 15:08:25;;;;;;;1.63;1.30;;;;;;;;;;10448373;28;20055;-84
2023/04/16 15:13:32;;;;;;;1.75;1.52;;;;;;;;;;10435112;28;20294;-86
2023/04/16 15:18:34;;;;;;;2.05;1.30;;;;;;;;;;10463538;28;20129;-81
2023/04/16 15:23:35;;;;;;;2.67;1.92;;;;;;;;;;10546211;22;20125;-85
2023/04/16 15:28:35;;;;;;;2.33;2.13;;;;;;;;;;10447492;28;20068;-84
2023/04/16 15:33:36;;;;;;;2.38;1.90;;;;;;;;;;10439397;28;20037;-87
2023/04/16 15:38:42;;;;;;;2.33;1.80;;;;;;;;;;10714794;22;20068;-88
2023/04/16 15:43:45;;;;;;;2.40;1.95;;;;;;;;;;10517919;22;20028;-86
2023/04/16 15:48:48;;;;;;;;;;;;;;;;;;10871138;22;20050;-86
2023/04/16 15:53:50;;;;;;;1.83;1.63;;;;;;;;;;10659619;22;19969;-85
2023/04/16 15:58:52;;;;;;;3.63;1.90;;;;;;;;;;10435125;28;20057;-83
2023/04/16 16:03:53;;;;;;;2.20;2.00;;;;;;;;;;10470819;22;20084;-85
2023/04/16 16:08:55;;;;;;;2.35;1.95;;;;;;;;;;10468005;28;20371;-83
2023/04/16 16:13:55;;;;;;;2.97;2.13;;;;;;;;;;10454649;28;20059;-81
2023/04/16 16:18:56;;;;;;;2.90;1.97;;;;;;;;;;10457505;28;20056;-83
2023/04/16 16:23:56;;;;;;;2.73;2.10;;;;;;;;;;10448035;28;20362;-84
2023/04/16 16:28:57;;;;;;;2.10;1.90;;;;;;;;;;10443027;28;20068;-82
2023/04/16 16:34:02;;;;;;;2.20;2.00;;;;;;;;;;10471666;23;20064;-85
2023/04/16 16:39:05;;;;;;;3.25;2.55;;;;;;;;;;10476398;28;20422;-84
2023/04/16 16:44:08;;;;;;;4.40;2.30;;;;;;;;;;10490293;28;20045;-84
2023/04/16 16:49:09;;;;;;;6.72;5.35;;;;;;;;;;10462050;28;20151;-77
2023/04/16 16:54:15;;;;;;;2.30;2.10;;;;;;;;;;10500040;23;20072;-85
2023/04/16 16:59:21;;;;;;;2.25;2.00;;;;;;;;;;10490790;22;20138;-85
2023/04/16 17:04:23;;;;;;;2.38;2.10;;;;;;;;;;10397450;28;20049;-82
2023/04/16 17:09:23;;;;;;;2.22;1.90;;;;;;;;;;10434444;28;20118;-85
2023/04/16 17:14:32;;;;;;;5.38;2.50;;;;;;;;;;10463518;28;20387;-84
2023/04/16 17:19:32;;;;;;;4.70;2.80;;;;;;;;;;10469567;28;20091;-87
2023/04/16 17:24:37;;;;;;;2.78;2.30;;;;;;;;;;10463220;28;20144;-86
2023/04/16 17:29:41;;;;;;;2.47;2.10;;;;;;;;;;10478993;28;20064;-84
2023/04/16 17:34:41;;;;;;;2.40;2.20;;;;;;;;;;10494493;28;20055;-85
2023/04/16 17:39:42;;;;;;;3.13;2.40;;;;;;;;;;10486391;28;20058;-84
2023/04/16 17:44:44;;;;;;;3.43;2.70;;;;;;;;;;10514957;28;20033;-84
2023/04/16 17:49:44;;;;;;;3.00;2.42;;;;;;;;;;10521910;28;20278;-84
2023/04/16 17:54:47;;;;;;;3.60;2.60;;;;;;;;;;10509957;28;20067;-83
2023/04/16 17:59:51;;;;;;;2.67;2.47;;;;;;;;;;10535010;28;20044;-85
2023/04/16 18:04:54;;;;;;;2.80;2.50;;;;;;;;;;10472026;28;20055;-85
2023/04/16 18:09:55;;;;;;;3.15;2.65;;;;;;;;;;10498925;28;20048;-85
2023/04/16 18:14:56;;;;;;;3.00;2.70;;;;;;;;;;10497870;28;20041;-86
2023/04/16 18:19:57;;;;;;;2.65;2.40;;;;;;;;;;10485502;28;20048;-84
2023/04/16 18:24:58;;;;;;;3.08;2.70;;;;;;;;;;10527399;28;20024;-84
2023/04/16 18:30:04;;;;;;;2.80;2.47;;;;;;;;;;10704111;22;20055;-83
2023/04/16 18:35:14;;;;;;;3.45;2.70;;;;;;;;;;10391852;28;20030;-89
2023/04/16 18:40:48;;;;;;;2.60;2.40;;;;;;;;;;10382984;28;20042;-82
2023/04/16 18:45:51;;;;;;;3.80;2.45;;;;;;;;;;10358957;28;20044;-84
2023/04/16 18:50:52;;;;;;;3.10;2.53;;;;;;;;;;10390926;28;20050;-81
2023/04/16 18:55:56;;;;;;;3.83;2.50;;;;;;;;;;10384386;28;20080;-84
2023/04/16 19:00:59;;;;;;;2.95;2.25;;;;;;;;;;10434538;28;20030;-85
2023/04/16 19:06:01;;;;;;;2.45;2.25;;;;;;;;;;10443080;28;20064;-86
2023/04/16 19:11:04;;;;;;;2.53;2.33;;;;;;;;;;10670791;22;20053;-84
2023/04/16 19:16:20;;;;;;;2.70;2.50;;;;;;;;;;10936912;22;20056;-82
2023/04/16 19:21:22;;;;;;;3.47;2.70;;;;;;;;;;10524945;28;20053;-84
2023/04/16 19:26:24;;;;;;;2.90;2.53;;;;;;;;;;10520286;28;20036;-84
2023/04/16 19:36:48;;;;;;;3.05;2.60;;;;;;;;;;10630872;22;20049;-84
2023/04/16 19:42:12;;;;;;;3.00;2.70;;;;;;;;;;10446279;28;20032;-84
2023/04/16 19:47:14;;;;;;;2.95;2.70;;;;;;;;;;10518563;28;20044;-85
2023/04/16 19:52:37;;;;;;;3.40;2.85;;;;;;;;;;10515208;28;20104;-86
2023/04/16 20:09:24;;;;;;;3.80;3.40;;;;;;;;;;10736980;22;20299;-82
2023/04/16 20:14:25;;;;;;;4.85;3.85;;;;;;;;;;10481442;28;20045;-82
2023/04/16 20:19:36;;;;;;;4.47;4.07;;;;;;;;;;10463024;28;20060;-84
2023/04/16 20:24:46;;;;;;;5.47;4.10;;;;;;;;;;10487217;28;20045;-85
2023/04/16 21:04:23;;;;;;;8.10;5.70;;;;;;;;;;10486391;28;20045;-85
2023/04/16 21:09:30;;;;;;;6.15;4.95;;;;;;;;;;10435791;28;20097;-87
2023/04/16 21:14:39;;;;;;;;;;;;;;;;;;10445765;28;20053;-87
2023/04/16 21:19:45;;;;;;;6.32;5.05;;;;;;;;;;10450676;28;19932;-86
2023/04/16 21:25:14;;;;;;;8.05;5.93;;;;;;;;;;10426748;28;20054;-85
2023/04/16 21:30:18;;;;;;;6.47;5.47;;;;;;;;;;10443445;28;20037;-86
2023/04/16 21:35:25;;;;;;;6.50;5.05;;;;;;;;;;10431853;28;20025;-86
2023/04/16 21:40:27;;;;;;;6.45;5.32;;;;;;;;;;10416507;28;20053;-84
2023/04/16 21:45:34;;;;;;;8.77;5.65;;;;;;;;;;10441149;28;20064;-86
2023/04/16 22:09:55;;;;;;;7.43;5.85;;;;;;;;;;10440272;28;20056;-84
2023/04/16 22:14:59;;;;;;;5.80;5.20;;;;;;;;;;10452591;28;20046;-83
2023/04/16 22:20:11;;;;;;;7.95;5.85;;;;;;;;;;10464921;28;20057;-85
2023/04/16 22:25:37;;;;;;;6.82;5.60;;;;;;;;;;10332676;28;20039;-87
2023/04/16 22:30:48;;;;;;;7.87;5.50;;;;;;;;;;10364822;28;20134;-85
2023/04/16 22:35:57;;;;;;;8.15;5.60;;;;;;;;;;10429877;28;20056;-86
2023/04/16 22:41:30;;;;;;;7.80;5.35;;;;;;;;;;10489869;28;20057;-82
2023/04/16 22:46:31;;;;;;;8.45;5.95;;;;;;;;;;10492696;28;20060;-82
2023/04/16 22:51:34;;;;;;;8.40;6.13;;;;;;;;;;10440318;28;20063;-82
2023/04/16 22:56:37;;;;;;;9.05;6.32;;;;;;;;;;10443261;28;20490;-84
2023/04/16 23:02:01;;;;;;;8.15;5.70;;;;;;;;;;10439144;28;20083;-82
2023/04/16 23:07:03;;;;;;;6.85;5.20;;;;;;;;;;10424947;28;20136;-82
2023/04/16 23:12:04;;;;;;;9.15;6.15;;;;;;;;;;10419078;28;20049;-83
2023/04/16 23:17:09;;;;;;;7.22;5.40;;;;;;;;;;10413351;28;20063;-84
2023/04/16 23:22:11;;;;;;;7.38;5.80;;;;;;;;;;10455453;28;20108;-82
2023/04/16 23:27:41;;;;;;;7.13;5.72;;;;;;;;;;10440312;28;20076;-83
2023/04/16 23:32:44;;;;;;;7.03;5.57;;;;;;;;;;10479690;28;20037;-83
2023/04/16 23:37:46;;;;;;;8.55;5.78;;;;;;;;;;10471086;28;20101;-84
2023/04/16 23:42:52;;;;;;;8.00;5.90;;;;;;;;;;10406169;28;20076;-86
2023/04/16 23:47:55;;;;;;;7.97;5.78;;;;;;;;;;10378202;28;20049;-86
2023/04/16 23:52:57;;;;;;;8.82;6.50;;;;;;;;;;10378552;28;20037;-86
2023/04/16 23:58:05;;;;;;;8.60;6.30;;;;;;;;;;10417661;28;20505;-84
